createdAt,value
2023-04-02T00:02:27.456Z,101036.13
2023-04-02T00:07:33.876Z,101050.75
2023-04-02T00:12:35.291Z,101061.72
2023-04-02T00:17:36.767Z,101078.09
2023-04-02T00:22:44.462Z,101080.22
2023-04-02T00:27:46.249Z,101098.19
2023-04-02T00:32:47.976Z,101101.47
2023-04-02T00:37:50.197Z,101097.31
2023-04-02T00:42:54.647Z,101113.94
2023-04-02T00:47:58.624Z,101119.16
2023-04-02T00:53:09.140Z,101127.53
2023-04-02T00:58:32.852Z,101144.50
2023-04-02T01:03:36.952Z,101154.59
2023-04-02T01:09:01.002Z,101167.31
2023-04-02T01:14:19.854Z,101166.25
2023-04-02T01:20:00.953Z,101174.69
2023-04-02T01:25:06.440Z,101183.94
2023-04-02T01:30:11.944Z,101195.28
2023-04-02T01:35:14.017Z,101208.16
2023-04-02T01:40:37.799Z,101221.25
2023-04-02T01:45:39.293Z,101227.06
2023-04-02T01:50:42.624Z,101235.47
2023-04-02T01:55:46.006Z,101238.78
2023-04-02T02:01:00.133Z,101248.22
2023-04-02T02:06:03.095Z,101251.34
2023-04-02T02:11:05.729Z,101271.69
2023-04-02T02:16:15.172Z,101274.03
2023-04-02T02:21:28.921Z,101287.59
2023-04-02T02:26:35.899Z,101296.16
2023-04-02T02:31:41.813Z,101301.00
2023-04-02T02:36:50.750Z,101319.63
2023-04-02T02:42:02.530Z,101327.63
2023-04-02T02:47:11.770Z,101327.31
2023-04-02T02:52:24.786Z,101345.19
2023-04-02T02:57:31.827Z,101347.69
2023-04-02T03:02:38.551Z,101356.00
2023-04-02T03:07:40.413Z,101368.16
2023-04-02T03:13:12.949Z,101366.91
2023-04-02T03:18:19.993Z,101385.13
2023-04-02T03:23:32.560Z,101384.53
2023-04-02T03:28:39.619Z,101401.22
2023-04-02T03:33:50.426Z,101400.41
2023-04-02T03:39:14.679Z,101416.34
2023-04-02T03:44:23.839Z,101422.22
2023-04-02T03:49:36.728Z,101442.34
2023-04-02T03:54:39.565Z,101446.28
2023-04-02T04:00:05.435Z,101469.34
2023-04-02T04:05:26.327Z,101480.25
2023-04-02T04:10:29.231Z,101482.31
2023-04-02T04:15:41.906Z,101489.50
2023-04-02T04:20:57.021Z,101499.50
2023-04-02T04:26:19.797Z,101505.22
2023-04-02T04:31:34.070Z,101514.97
2023-04-02T04:36:53.833Z,101536.75
2023-04-02T04:41:58.689Z,101547.06
2023-04-02T04:47:07.327Z,101562.06
2023-04-02T04:52:22.409Z,101567.03
2023-04-02T04:57:39.864Z,101575.66
2023-04-02T05:02:48.855Z,101595.63
2023-04-02T05:07:59.863Z,101606.38
2023-04-02T05:13:01.441Z,101617.09
2023-04-02T05:18:44.986Z,101627.63
2023-04-02T05:23:52.695Z,101649.03
2023-04-02T05:29:09.193Z,101652.19
2023-04-02T05:34:12.409Z,101661.78
2023-04-02T05:39:22.603Z,101677.94
2023-04-02T05:44:30.153Z,101682.94
2023-04-02T05:49:48.662Z,101690.63
2023-04-02T05:55:13.429Z,101697.22
2023-04-02T06:00:25.466Z,101706.97
2023-04-02T06:05:34.317Z,101717.38
2023-04-02T06:10:47.435Z,101726.91
2023-04-02T06:15:49.158Z,101732.53
2023-04-02T06:20:51.080Z,101747.94
2023-04-02T06:26:00.253Z,101753.50
2023-04-02T06:31:09.567Z,101772.38
2023-04-02T06:36:12.494Z,101784.97
2023-04-02T06:41:23.234Z,101811.47
2023-04-02T06:46:49.974Z,101816.09
2023-04-02T06:51:54.794Z,101820.81
2023-04-02T06:56:56.682Z,101829.91
2023-04-02T07:02:03.684Z,101834.63
2023-04-02T07:07:05.164Z,101849.94
2023-04-02T07:12:23.695Z,101869.56
2023-04-02T07:17:25.176Z,101886.25
2023-04-02T07:22:26.896Z,101908.06
2023-04-02T07:27:28.296Z,101903.16
2023-04-02T07:32:29.785Z,101912.19
2023-04-02T07:37:31.903Z,101926.94
2023-04-02T07:42:33.318Z,101928.53
2023-04-02T07:47:34.857Z,101930.22
2023-04-02T07:52:42.746Z,101924.00
2023-04-02T07:57:55.733Z,101953.69
2023-04-02T08:02:57.328Z,101941.78
2023-04-02T08:07:58.888Z,101942.09
2023-04-02T08:13:00.353Z,101958.69
2023-04-02T08:18:01.860Z,101970.19
2023-04-02T08:23:03.853Z,101979.63
2023-04-02T08:28:05.300Z,101989.03
2023-04-02T08:33:07.199Z,101996.91
2023-04-02T08:38:14.716Z,102013.78
2023-04-02T08:43:48.770Z,102027.50
2023-04-02T08:48:55.805Z,102040.03
2023-04-02T08:54:03.422Z,102041.13
2023-04-02T08:59:34.655Z,102057.75
2023-04-02T09:04:36.979Z,102073.56
2023-04-02T09:09:38.904Z,102070.66
2023-04-02T09:14:50.292Z,102077.72
2023-04-02T09:20:13.614Z,102082.03
2023-04-02T09:25:21.041Z,102091.59
2023-04-02T09:30:31.767Z,102104.06
2023-04-02T09:35:55.048Z,102115.38
2023-04-02T09:41:05.756Z,102114.34
2023-04-02T09:46:13.178Z,102121.59
2023-04-02T09:51:23.047Z,102130.06
2023-04-02T09:56:26.984Z,102140.38
2023-04-02T10:01:33.200Z,102139.91
2023-04-02T10:06:35.200Z,102150.25
2023-04-02T10:11:45.807Z,102157.91
2023-04-02T10:16:58.390Z,102166.75
2023-04-02T10:22:04.302Z,102168.31
2023-04-02T10:27:37.562Z,102170.09
2023-04-02T10:33:20.125Z,102161.25
2023-04-02T10:38:32.320Z,102152.34
2023-04-02T10:43:45.594Z,102162.97
2023-04-02T10:48:54.784Z,102151.09
2023-04-02T10:54:21.840Z,102160.50
2023-04-02T10:59:32.063Z,102164.59
2023-04-02T11:04:44.126Z,102164.50
2023-04-02T11:09:50.793Z,102161.78
2023-04-02T11:14:54.311Z,102167.75
2023-04-02T11:20:34.205Z,102160.94
2023-04-02T11:25:36.099Z,102167.34
2023-04-02T11:30:37.764Z,102167.09
2023-04-02T11:35:40.919Z,102166.38
2023-04-02T11:40:45.374Z,102178.94
2023-04-02T11:45:54.839Z,102185.09
2023-04-02T11:50:57.148Z,102188.50
2023-04-02T11:56:21.336Z,102196.13
2023-04-02T12:02:14.197Z,102196.41
2023-04-02T12:07:35.133Z,102207.31
2023-04-02T12:12:38.672Z,102209.06
2023-04-02T12:17:40.963Z,102209.56
2023-04-02T12:22:52.057Z,102214.25
2023-04-02T12:28:14.375Z,102237.22
2023-04-02T12:33:17.147Z,102239.91
2023-04-02T12:38:21.458Z,102240.84
2023-04-02T12:43:27.761Z,102254.06
2023-04-02T12:48:31.380Z,102256.00
2023-04-02T12:53:36.892Z,102256.84
2023-04-02T12:58:41.543Z,102255.03
2023-04-02T13:03:43.973Z,102259.94
2023-04-02T13:08:45.630Z,102263.44
2023-04-02T13:13:51.695Z,102257.03
2023-04-02T13:19:17.965Z,102261.66
2023-04-02T13:24:22.066Z,102258.63
2023-04-02T13:29:42.896Z,102263.22
2023-04-02T13:34:44.444Z,102271.47
2023-04-02T13:39:46.341Z,102277.31
2023-04-02T13:44:47.961Z,102279.31
2023-04-02T13:49:51.031Z,102268.09
2023-04-02T13:54:56.101Z,102268.75
2023-04-02T14:00:02.970Z,102282.75
2023-04-02T14:05:23.203Z,102286.25
2023-04-02T14:10:47.063Z,102282.94
2023-04-02T14:16:17.623Z,102300.16
2023-04-02T14:22:02.818Z,102301.78
2023-04-02T14:27:24.268Z,102315.06
2023-04-02T14:32:36.475Z,102319.31
2023-04-02T14:38:15.496Z,102314.59
2023-04-02T14:43:27.742Z,102321.91
2023-04-02T14:48:41.414Z,102316.28
2023-04-02T14:53:52.590Z,102333.94
2023-04-02T14:59:32.699Z,102334.19
2023-04-02T15:04:40.612Z,102335.09
2023-04-02T15:09:56.992Z,102344.94
2023-04-02T15:15:04.616Z,102351.38
2023-04-02T15:20:15.908Z,102347.31
2023-04-02T15:25:37.959Z,102357.09
2023-04-02T15:30:44.009Z,102357.41
2023-04-02T15:35:57.505Z,102368.94
2023-04-02T15:41:04.088Z,102368.59
2023-04-02T15:46:18.375Z,102369.25
2023-04-02T15:51:44.754Z,102384.00
2023-04-02T15:57:10.005Z,102387.81
2023-04-02T16:02:20.726Z,102386.97
2023-04-02T16:07:32.299Z,102404.63
2023-04-02T16:12:37.242Z,102397.53
2023-04-02T16:17:45.689Z,102392.81
2023-04-02T16:23:00.476Z,102395.53
2023-04-02T16:28:23.794Z,102405.66
2023-04-02T16:33:32.752Z,102413.88
2023-04-02T16:38:56.698Z,102431.34
2023-04-02T16:44:06.151Z,102435.75
2023-04-02T16:49:13.545Z,102444.06
2023-04-02T16:54:52.188Z,102455.38
2023-04-02T17:00:03.897Z,102453.28
2023-04-02T17:05:12.279Z,102461.91
2023-04-02T17:10:40.977Z,102461.72
2023-04-02T17:15:46.241Z,102471.00
2023-04-02T17:20:48.640Z,102483.88
2023-04-02T17:25:57.944Z,102488.22
2023-04-02T17:31:01.332Z,102498.09
2023-04-02T17:36:09.392Z,102498.81
2023-04-02T17:41:46.393Z,102513.31
2023-04-02T17:47:07.572Z,102516.81
2023-04-02T17:52:18.089Z,102529.28
2023-04-02T17:57:43.868Z,102535.81
2023-04-02T18:02:51.469Z,102549.75
2023-04-02T18:08:13.498Z,102553.19
2023-04-02T18:13:41.104Z,102565.88
2023-04-02T18:19:05.962Z,102582.16
2023-04-02T18:24:19.932Z,102580.69
2023-04-02T18:29:35.328Z,102587.78
2023-04-02T18:34:58.050Z,102593.03
2023-04-02T18:40:37.153Z,102602.41
2023-04-02T18:45:44.180Z,102622.78
2023-04-02T18:50:48.947Z,102626.63
2023-04-02T18:55:56.552Z,102636.38
2023-04-02T19:01:04.534Z,102640.59
2023-04-02T19:06:12.865Z,102654.94
2023-04-02T19:11:21.294Z,102664.84
2023-04-02T19:16:55.810Z,102677.72
2023-04-02T19:22:42.374Z,102696.69
2023-04-02T19:28:08.733Z,102702.09
2023-04-02T19:33:42.390Z,102717.16
2023-04-02T19:38:50.488Z,102721.94
2023-04-02T19:43:53.186Z,102725.50
2023-04-02T19:49:26.836Z,102738.03
2023-04-02T19:54:28.525Z,102740.41
2023-04-02T19:59:30.397Z,102750.72
2023-04-02T20:04:31.945Z,102752.03
2023-04-02T20:09:33.472Z,102767.44
2023-04-02T20:14:35.257Z,102761.88
2023-04-02T20:19:36.882Z,102763.97
2023-04-02T20:24:38.437Z,102770.53
2023-04-02T20:29:42.289Z,102780.25
2023-04-02T20:34:44.222Z,102789.97
2023-04-02T20:39:48.758Z,102788.50
2023-04-02T20:44:50.473Z,102786.50
2023-04-02T20:49:53.360Z,102804.91
2023-04-02T20:54:54.950Z,102805.31
2023-04-02T20:59:56.415Z,102816.91
2023-04-02T21:04:58.020Z,102829.22
2023-04-02T21:10:02.633Z,102831.03
2023-04-02T21:15:04.428Z,102835.00
2023-04-02T21:20:06.711Z,102848.63
2023-04-02T21:25:11.214Z,102847.00
2023-04-02T21:30:15.924Z,102859.22
2023-04-02T21:35:17.547Z,102863.31
2023-04-02T21:40:25.177Z,102860.78
2023-04-02T21:45:28.162Z,102874.16
2023-04-02T21:50:34.548Z,102874.66
2023-04-02T21:55:36.267Z,102869.31
2023-04-02T22:00:38.346Z,102882.84
2023-04-02T22:05:41.542Z,102880.06
2023-04-02T22:10:45.634Z,102883.34
2023-04-02T22:15:48.469Z,102885.41
2023-04-02T22:20:54.704Z,102879.41
2023-04-02T22:25:59.138Z,102885.91
2023-04-02T22:31:21.905Z,102885.91
2023-04-02T22:36:25.431Z,102889.84
2023-04-02T22:41:32.069Z,102888.31
2023-04-02T22:46:34.621Z,102883.06
2023-04-02T22:51:36.425Z,102904.44
2023-04-02T22:56:39.541Z,102900.25
2023-04-02T23:01:41.122Z,102896.47
2023-04-02T23:06:42.786Z,102901.03
2023-04-02T23:11:44.367Z,102907.53
2023-04-02T23:16:45.881Z,102905.25
2023-04-02T23:21:48.521Z,102906.34
2023-04-02T23:26:49.978Z,102908.91
2023-04-02T23:31:51.617Z,102910.53
2023-04-02T23:36:53.164Z,102915.56
2023-04-02T23:41:54.683Z,102926.78
2023-04-02T23:46:56.222Z,102914.81
2023-04-02T23:51:58.016Z,102917.72
2023-04-02T23:56:59.418Z,102927.50
